Time;durP1;ratioP1;P1;durP2;ratioP2;P2;SDS_P1;SDS_P2;PMS_P1;PMS_P2;Temp;Humidity;BMP_temperature;BMP_pressure;BME280_temperature;BME280_humidity;BME280_pressure;Samples;Min_cycle;Max_cycle;Signal;HPM_P1;HPM_P2
2022/06/27 00:01:49;;;;;;;4.80;4.47;;;;;;;;;;10421671;28;20223;-72
2022/06/27 00:06:50;;;;;;;5.45;5.07;;;;;;;;;;10427293;28;20565;-72
2022/06/27 00:11:51;;;;;;;5.72;5.50;;;;;;;;;;10421151;28;20222;-73
2022/06/27 00:16:52;;;;;;;5.50;5.20;;;;;;;;;;10423252;28;20236;-72
2022/06/27 00:21:53;;;;;;;5.40;5.15;;;;;;;;;;10423515;28;20249;-73
2022/06/27 00:26:54;;;;;;;5.88;5.78;;;;;;;;;;10421526;28;20262;-72
2022/06/27 00:31:55;;;;;;;5.63;5.40;;;;;;;;;;10421269;28;20640;-72
2022/06/27 00:36:57;;;;;;;5.75;5.50;;;;;;;;;;10422476;28;20207;-73
2022/06/27 00:41:58;;;;;;;5.80;5.70;;;;;;;;;;10420544;28;20187;-72
2022/06/27 00:46:59;;;;;;;6.07;5.80;;;;;;;;;;10422606;28;20191;-72
2022/06/27 00:52:00;;;;;;;5.90;5.78;;;;;;;;;;10417200;28;20230;-72
2022/06/27 00:57:01;;;;;;;5.75;5.55;;;;;;;;;;10418914;28;20205;-72
2022/06/27 01:02:02;;;;;;;6.68;6.22;;;;;;;;;;10401323;28;20348;-72
2022/06/27 01:07:05;;;;;;;6.78;6.25;;;;;;;;;;10424254;28;20580;-72
2022/06/27 01:12:07;;;;;;;6.03;5.78;;;;;;;;;;10414647;28;20176;-72
2022/06/27 01:17:10;;;;;;;6.38;6.22;;;;;;;;;;10400353;28;20293;-72
2022/06/27 01:22:11;;;;;;;7.40;7.00;;;;;;;;;;10420930;28;20270;-72
2022/06/27 01:27:12;;;;;;;6.63;6.32;;;;;;;;;;10404826;28;20195;-72
2022/06/27 01:32:14;;;;;;;6.82;6.43;;;;;;;;;;10412906;28;20210;-72
2022/06/27 01:37:15;;;;;;;6.88;6.68;;;;;;;;;;10411705;28;20986;-72
2022/06/27 01:42:17;;;;;;;7.18;6.75;;;;;;;;;;10413037;28;20171;-72
2022/06/27 01:47:18;;;;;;;7.28;6.97;;;;;;;;;;10434729;28;20199;-72
2022/06/27 01:52:23;;;;;;;6.82;6.63;;;;;;;;;;10420238;28;20226;-72
2022/06/27 01:57:24;;;;;;;7.53;7.22;;;;;;;;;;10412414;28;20302;-72
2022/06/27 02:02:26;;;;;;;7.82;7.40;;;;;;;;;;10424917;28;20741;-72
2022/06/27 02:07:27;;;;;;;8.80;8.30;;;;;;;;;;10411460;28;20273;-73
2022/06/27 02:12:29;;;;;;;7.32;7.13;;;;;;;;;;10406194;28;20618;-72
2022/06/27 02:17:30;;;;;;;9.02;8.48;;;;;;;;;;10425177;28;20682;-72
2022/06/27 02:22:32;;;;;;;8.35;7.95;;;;;;;;;;10408465;28;20624;-72
2022/06/27 02:27:34;;;;;;;8.40;8.00;;;;;;;;;;10418666;28;20214;-72
2022/06/27 02:32:35;;;;;;;8.95;8.30;;;;;;;;;;10428374;28;20217;-71
2022/06/27 02:37:36;;;;;;;10.05;9.40;;;;;;;;;;10425595;28;20736;-72
2022/06/27 02:42:37;;;;;;;9.50;9.05;;;;;;;;;;10426890;28;20183;-71
2022/06/27 02:47:39;;;;;;;10.85;9.75;;;;;;;;;;10420672;28;20690;-71
2022/06/27 02:52:45;;;;;;;9.30;8.90;;;;;;;;;;10409317;28;20250;-72
2022/06/27 02:57:46;;;;;;;10.55;9.75;;;;;;;;;;10421019;28;20238;-72
2022/06/27 03:02:48;;;;;;;10.07;9.38;;;;;;;;;;10411023;28;20211;-72
2022/06/27 03:07:52;;;;;;;9.82;9.32;;;;;;;;;;10427972;28;20210;-72
2022/06/27 03:12:53;;;;;;;10.05;9.50;;;;;;;;;;10406211;28;20189;-71
2022/06/27 03:17:54;;;;;;;9.80;9.25;;;;;;;;;;10408885;28;20248;-72
2022/06/27 03:23:01;;;;;;;9.43;8.98;;;;;;;;;;10424080;28;20222;-72
2022/06/27 03:28:04;;;;;;;10.68;9.93;;;;;;;;;;10400594;28;20191;-72
2022/06/27 03:33:06;;;;;;;15.40;14.18;;;;;;;;;;10417642;28;20297;-71
2022/06/27 03:38:14;;;;;;;15.57;14.23;;;;;;;;;;10405626;28;20210;-70
2022/06/27 03:43:16;;;;;;;11.18;10.48;;;;;;;;;;10405417;28;20639;-71
2022/06/27 03:53:56;;;;;;;10.85;10.02;;;;;;;;;;10425791;28;20218;-71
2022/06/27 03:58:57;;;;;;;11.18;10.38;;;;;;;;;;10419941;28;20183;-70
2022/06/27 04:03:59;;;;;;;11.63;10.77;;;;;;;;;;10400179;28;20210;-70
2022/06/27 04:09:00;;;;;;;11.20;10.40;;;;;;;;;;10419189;28;20290;-70
2022/06/27 04:14:01;;;;;;;10.90;10.30;;;;;;;;;;10419441;28;20205;-70
2022/06/27 04:19:14;;;;;;;13.73;12.77;;;;;;;;;;10420793;28;20211;-64
2022/06/27 04:24:35;;;;;;;13.32;12.45;;;;;;;;;;10426988;28;20188;-64
2022/06/27 04:29:41;;;;;;;14.95;12.27;;;;;;;;;;10405095;28;20646;-64
2022/06/27 04:34:43;;;;;;;12.90;12.00;;;;;;;;;;10406792;28;20226;-65
2022/06/27 04:39:46;;;;;;;13.15;12.02;;;;;;;;;;10415277;28;20175;-64
2022/06/27 04:44:58;;;;;;;12.18;11.27;;;;;;;;;;10393912;28;20804;-64
2022/06/27 04:50:00;;;;;;;13.18;12.27;;;;;;;;;;10414516;28;20351;-65
2022/06/27 04:55:02;;;;;;;12.90;11.73;;;;;;;;;;10408971;28;20280;-64
2022/06/27 05:00:08;;;;;;;11.98;11.02;;;;;;;;;;10398036;28;20666;-65
2022/06/27 05:05:28;;;;;;;13.68;10.80;;;;;;;;;;10414022;28;20214;-70
2022/06/27 05:10:30;;;;;;;13.35;11.07;;;;;;;;;;10414840;28;20174;-70
2022/06/27 05:15:31;;;;;;;12.20;10.90;;;;;;;;;;10426790;28;20238;-71
2022/06/27 05:20:34;;;;;;;14.23;10.70;;;;;;;;;;10425129;28;20204;-70
2022/06/27 05:25:35;;;;;;;10.90;10.10;;;;;;;;;;10417833;28;20179;-69
2022/06/27 05:30:36;;;;;;;10.45;9.57;;;;;;;;;;10405738;28;20211;-69
2022/06/27 05:35:39;;;;;;;11.70;10.55;;;;;;;;;;10414716;28;20211;-68
2022/06/27 05:40:41;;;;;;;12.52;11.60;;;;;;;;;;10417926;28;20179;-69
2022/06/27 05:45:42;;;;;;;11.85;11.10;;;;;;;;;;10424321;28;20179;-69
2022/06/27 05:51:16;;;;;;;11.70;10.77;;;;;;;;;;10420477;28;20219;-69
2022/06/27 05:56:19;;;;;;;10.35;9.65;;;;;;;;;;10409997;28;20198;-68
2022/06/27 06:01:20;;;;;;;11.93;11.05;;;;;;;;;;10408557;28;20218;-69
2022/06/27 06:06:21;;;;;;;11.93;11.00;;;;;;;;;;10401987;28;20582;-69
2022/06/27 06:11:23;;;;;;;11.57;10.75;;;;;;;;;;10423517;28;20186;-69
2022/06/27 06:16:24;;;;;;;9.95;9.32;;;;;;;;;;10419529;28;20213;-69
2022/06/27 06:21:25;;;;;;;11.20;10.40;;;;;;;;;;10427196;28;20282;-69
2022/06/27 06:26:26;;;;;;;10.30;9.65;;;;;;;;;;10399715;28;20175;-69
2022/06/27 06:31:28;;;;;;;10.85;9.82;;;;;;;;;;10418731;28;20211;-70
2022/06/27 06:36:35;;;;;;;10.07;9.43;;;;;;;;;;10402436;28;20687;-69
2022/06/27 06:41:37;;;;;;;10.45;9.75;;;;;;;;;;10405836;28;20179;-69
2022/06/27 06:46:39;;;;;;;8.93;8.52;;;;;;;;;;10419406;28;20182;-69
2022/06/27 06:51:42;;;;;;;10.25;9.35;;;;;;;;;;10419927;28;20227;-69
2022/06/27 06:56:45;;;;;;;9.63;8.98;;;;;;;;;;10422626;28;20294;-68
2022/06/27 07:01:47;;;;;;;9.13;8.52;;;;;;;;;;10401382;28;20599;-69
2022/06/27 07:06:48;;;;;;;9.20;8.70;;;;;;;;;;10399490;28;20187;-69
2022/06/27 07:11:50;;;;;;;8.85;8.20;;;;;;;;;;10416269;28;20183;-70
2022/06/27 07:16:51;;;;;;;9.60;8.95;;;;;;;;;;10419817;28;20241;-69
2022/06/27 07:21:52;;;;;;;10.38;9.57;;;;;;;;;;10416017;28;20175;-69
2022/06/27 07:26:53;;;;;;;8.70;8.30;;;;;;;;;;10418046;28;20213;-69
2022/06/27 07:31:54;;;;;;;9.00;8.43;;;;;;;;;;10405107;28;20225;-69
2022/06/27 07:36:56;;;;;;;8.32;7.93;;;;;;;;;;10412316;28;20428;-69
2022/06/27 07:41:58;;;;;;;9.18;8.35;;;;;;;;;;10422022;28;20688;-69
2022/06/27 07:47:01;;;;;;;9.10;8.60;;;;;;;;;;10418046;28;20187;-69
2022/06/27 07:52:03;;;;;;;8.98;8.38;;;;;;;;;;10415423;28;20558;-69
2022/06/27 07:57:05;;;;;;;9.07;8.68;;;;;;;;;;10413481;28;20214;-68
2022/06/27 08:02:07;;;;;;;9.15;8.48;;;;;;;;;;10400673;28;20844;-70
2022/06/27 08:07:08;;;;;;;9.00;8.32;;;;;;;;;;10392748;28;20186;-69
2022/06/27 08:12:10;;;;;;;9.63;9.02;;;;;;;;;;10422431;28;20595;-70
2022/06/27 08:17:12;;;;;;;8.73;8.30;;;;;;;;;;10419142;28;20911;-70
2022/06/27 08:22:14;;;;;;;9.43;8.30;;;;;;;;;;10418640;28;20182;-70
2022/06/27 08:27:15;;;;;;;8.82;8.30;;;;;;;;;;10413499;28;20196;-69
2022/06/27 08:32:16;;;;;;;9.23;8.73;;;;;;;;;;10404847;28;20260;-70
2022/06/27 08:37:17;;;;;;;9.15;8.65;;;;;;;;;;10421903;28;20211;-70
2022/06/27 08:42:20;;;;;;;9.23;8.60;;;;;;;;;;10417541;28;20180;-69
2022/06/27 08:47:22;;;;;;;9.32;8.68;;;;;;;;;;10404690;28;20253;-69
2022/06/27 08:52:24;;;;;;;9.07;8.27;;;;;;;;;;10426888;28;20258;-70
2022/06/27 08:57:25;;;;;;;8.88;8.27;;;;;;;;;;10396863;28;20213;-67
2022/06/27 09:02:26;;;;;;;9.45;8.55;;;;;;;;;;10398259;28;20218;-69
2022/06/27 09:07:47;;;;;;;8.75;8.20;;;;;;;;;;10409231;28;20190;-69
2022/06/27 09:12:55;;;;;;;8.90;8.20;;;;;;;;;;10412773;28;20655;-69
2022/06/27 09:18:00;;;;;;;9.75;8.80;;;;;;;;;;10414915;28;20980;-68
2022/06/27 09:23:01;;;;;;;8.65;8.18;;;;;;;;;;10415494;28;20175;-68
2022/06/27 09:28:04;;;;;;;8.00;7.47;;;;;;;;;;10416364;28;20187;-68
2022/06/27 09:33:09;;;;;;;8.27;7.57;;;;;;;;;;10399825;28;20305;-68
2022/06/27 09:38:11;;;;;;;7.97;7.57;;;;;;;;;;10418518;28;20201;-68
2022/06/27 09:43:16;;;;;;;7.80;6.85;;;;;;;;;;10412876;28;20188;-68
2022/06/27 09:48:17;;;;;;;8.43;8.13;;;;;;;;;;10416192;28;20231;-69
2022/06/27 09:53:25;;;;;;;8.57;8.10;;;;;;;;;;10420789;28;20183;-68
2022/06/27 09:58:27;;;;;;;7.43;6.70;;;;;;;;;;10419475;28;20207;-69
2022/06/27 10:03:31;;;;;;;6.32;6.13;;;;;;;;;;10404296;28;20210;-69
2022/06/27 10:08:33;;;;;;;6.03;5.80;;;;;;;;;;10420781;28;20949;-68
2022/06/27 10:13:35;;;;;;;6.50;6.00;;;;;;;;;;10421849;28;20221;-69
2022/06/27 10:19:03;;;;;;;6.15;5.85;;;;;;;;;;10419727;28;20207;-68
2022/06/27 10:24:21;;;;;;;6.57;6.13;;;;;;;;;;10424472;28;20274;-68
2022/06/27 10:29:28;;;;;;;5.80;5.40;;;;;;;;;;10413981;28;21015;-68
2022/06/27 10:34:36;;;;;;;6.70;6.20;;;;;;;;;;10410226;28;20241;-69
2022/06/27 10:39:37;;;;;;;5.28;4.90;;;;;;;;;;10417493;28;20187;-68
2022/06/27 10:44:38;;;;;;;5.50;5.40;;;;;;;;;;10417976;28;20269;-68
2022/06/27 10:49:39;;;;;;;5.70;5.32;;;;;;;;;;10418980;28;20211;-68
2022/06/27 10:54:41;;;;;;;5.80;5.25;;;;;;;;;;10416861;28;20210;-69
2022/06/27 10:59:42;;;;;;;5.30;5.10;;;;;;;;;;10419534;28;20176;-68
2022/06/27 11:04:45;;;;;;;5.13;4.90;;;;;;;;;;10399644;28;20765;-68
2022/06/27 11:09:47;;;;;;;4.95;4.75;;;;;;;;;;10399884;28;20311;-69
2022/06/27 11:14:50;;;;;;;4.70;4.60;;;;;;;;;;10421876;28;20215;-70
2022/06/27 11:20:07;;;;;;;4.75;4.55;;;;;;;;;;10406832;28;20195;-70
2022/06/27 11:25:08;;;;;;;4.05;3.95;;;;;;;;;;10422515;28;20190;-70
2022/06/27 11:35:29;;;;;;;4.68;4.38;;;;;;;;;;10423020;28;20211;-69
2022/06/27 11:40:30;;;;;;;5.20;4.90;;;;;;;;;;10405297;28;20183;-70
2022/06/27 11:45:39;;;;;;;5.30;5.00;;;;;;;;;;10417330;28;20318;-69
2022/06/27 11:50:41;;;;;;;6.88;6.43;;;;;;;;;;10418178;28;20266;-68
2022/06/27 11:55:42;;;;;;;5.20;4.72;;;;;;;;;;10415457;28;20218;-69
2022/06/27 12:00:43;;;;;;;5.07;4.88;;;;;;;;;;10412144;28;20218;-68
2022/06/27 12:05:44;;;;;;;4.70;4.50;;;;;;;;;;10395925;28;20569;-68
2022/06/27 12:11:32;;;;;;;4.43;4.38;;;;;;;;;;10415280;28;20198;-67
2022/06/27 12:16:09;;;;;;;4.85;4.55;;;;;;;;;;10400209;28;20203;-68
2022/06/27 12:21:11;;;;;;;4.20;4.10;;;;;;;;;;10409477;28;20233;-68
2022/06/27 12:26:12;;;;;;;4.13;4.03;;;;;;;;;;10413883;28;20685;-67
2022/06/27 12:31:13;;;;;;;4.20;4.10;;;;;;;;;;10413673;28;20244;-68
2022/06/27 12:36:15;;;;;;;4.78;4.68;;;;;;;;;;10406505;28;20804;-66
2022/06/27 12:41:16;;;;;;;4.13;4.03;;;;;;;;;;10407152;28;20190;-67
2022/06/27 12:46:18;;;;;;;5.03;4.85;;;;;;;;;;10405920;28;20265;-67
2022/06/27 12:51:19;;;;;;;5.32;5.03;;;;;;;;;;10407028;28;20245;-70
2022/06/27 12:56:21;;;;;;;5.43;5.22;;;;;;;;;;10407501;28;20219;-69
2022/06/27 13:01:22;;;;;;;5.22;5.07;;;;;;;;;;10408651;28;20352;-70
2022/06/27 13:06:24;;;;;;;5.60;5.20;;;;;;;;;;10387903;28;20278;-72
2022/06/27 13:11:25;;;;;;;5.97;5.78;;;;;;;;;;10409454;28;20206;-72
2022/06/27 13:16:26;;;;;;;6.45;5.72;;;;;;;;;;10411340;28;20210;-71
2022/06/27 13:21:28;;;;;;;5.88;5.57;;;;;;;;;;10409030;28;20218;-73
2022/06/27 13:26:29;;;;;;;6.07;5.68;;;;;;;;;;10410920;28;20629;-73
2022/06/27 13:31:30;;;;;;;6.18;5.68;;;;;;;;;;10414381;28;20284;-71
2022/06/27 13:36:31;;;;;;;6.00;5.80;;;;;;;;;;10421811;28;20288;-70
2022/06/27 13:41:32;;;;;;;6.63;6.32;;;;;;;;;;10399158;28;20228;-71
2022/06/27 13:46:33;;;;;;;6.55;6.32;;;;;;;;;;10418956;28;20187;-73
2022/06/27 13:51:34;;;;;;;5.72;5.53;;;;;;;;;;10395377;28;20321;-72
2022/06/27 13:56:35;;;;;;;6.72;6.35;;;;;;;;;;10415708;28;20817;-71
2022/06/27 14:01:36;;;;;;;6.90;6.57;;;;;;;;;;10397905;28;20241;-73
2022/06/27 14:11:57;;;;;;;7.25;6.68;;;;;;;;;;10415763;28;20179;-69
2022/06/27 14:16:58;;;;;;;7.45;6.75;;;;;;;;;;10415570;28;20215;-69
2022/06/27 14:22:01;;;;;;;6.63;6.40;;;;;;;;;;10417793;28;20182;-70
2022/06/27 14:27:02;;;;;;;7.65;7.03;;;;;;;;;;10412277;28;20764;-69
2022/06/27 14:32:03;;;;;;;6.55;6.32;;;;;;;;;;10418162;28;20219;-69
2022/06/27 14:37:05;;;;;;;6.80;6.35;;;;;;;;;;10417994;28;20238;-69
2022/06/27 14:42:06;;;;;;;7.20;6.65;;;;;;;;;;10407416;28;20183;-70
2022/06/27 14:47:07;;;;;;;6.55;6.03;;;;;;;;;;10415305;28;20221;-69
2022/06/27 14:52:08;;;;;;;6.00;5.90;;;;;;;;;;10414859;28;20217;-70
2022/06/27 14:57:09;;;;;;;5.20;4.95;;;;;;;;;;10415297;28;20293;-70
2022/06/27 15:02:10;;;;;;;4.80;4.70;;;;;;;;;;10380114;28;20250;-70
2022/06/27 15:07:11;;;;;;;5.32;5.05;;;;;;;;;;10413245;28;20175;-69
2022/06/27 15:12:13;;;;;;;5.00;4.82;;;;;;;;;;10413566;28;20590;-71
2022/06/27 15:17:14;;;;;;;4.97;4.80;;;;;;;;;;10415706;28;20207;-73
2022/06/27 15:22:15;;;;;;;4.90;4.70;;;;;;;;;;10424583;28;20187;-73
2022/06/27 15:27:16;;;;;;;4.60;4.50;;;;;;;;;;10420551;28;20261;-72
2022/06/27 15:32:17;;;;;;;5.10;4.70;;;;;;;;;;10419054;28;20231;-73
2022/06/27 15:37:19;;;;;;;4.70;4.50;;;;;;;;;;10410276;28;20241;-73
2022/06/27 15:42:20;;;;;;;5.53;5.13;;;;;;;;;;10416943;28;21095;-73
2022/06/27 15:47:21;;;;;;;5.38;4.88;;;;;;;;;;10398995;28;21037;-73
2022/06/27 15:52:22;;;;;;;6.35;5.95;;;;;;;;;;10397917;28;20254;-74
2022/06/27 15:57:23;;;;;;;5.05;4.70;;;;;;;;;;10412960;28;20208;-72
2022/06/27 16:02:24;;;;;;;5.57;5.47;;;;;;;;;;10402913;28;20250;-71
2022/06/27 16:07:25;;;;;;;6.15;5.90;;;;;;;;;;10416943;28;20270;-73
2022/06/27 16:12:26;;;;;;;6.63;6.20;;;;;;;;;;10414470;28;20179;-71
2022/06/27 16:17:28;;;;;;;6.35;6.13;;;;;;;;;;10416730;28;20215;-71
2022/06/27 16:22:29;;;;;;;6.15;5.75;;;;;;;;;;10413569;28;20249;-72
2022/06/27 16:27:30;;;;;;;5.95;5.75;;;;;;;;;;10411716;28;20662;-65
2022/06/27 16:32:32;;;;;;;6.50;5.90;;;;;;;;;;10416447;28;20207;-65
2022/06/27 16:37:33;;;;;;;6.00;5.50;;;;;;;;;;10421443;28;20215;-65
2022/06/27 16:47:53;;;;;;;5.75;5.35;;;;;;;;;;10417865;28;20297;-72
2022/06/27 16:52:54;;;;;;;5.38;5.18;;;;;;;;;;10416274;28;20186;-71
2022/06/27 16:57:55;;;;;;;5.65;5.35;;;;;;;;;;10421032;28;20250;-70
2022/06/27 17:02:56;;;;;;;5.10;4.97;;;;;;;;;;10411918;28;20211;-72
2022/06/27 17:07:57;;;;;;;6.30;5.82;;;;;;;;;;10423464;28;21330;-72
2022/06/27 17:12:59;;;;;;;5.55;5.45;;;;;;;;;;10391966;28;20219;-73
2022/06/27 17:18:00;;;;;;;5.45;5.25;;;;;;;;;;10430489;28;20344;-73
2022/06/27 17:23:01;;;;;;;5.22;5.15;;;;;;;;;;10433910;28;20191;-76
2022/06/27 17:28:03;;;;;;;5.28;4.93;;;;;;;;;;10429417;28;20190;-73
2022/06/27 17:33:05;;;;;;;5.65;5.55;;;;;;;;;;10424743;28;20272;-72
2022/06/27 17:38:06;;;;;;;6.57;6.15;;;;;;;;;;10426038;28;20211;-72
2022/06/27 17:43:07;;;;;;;8.07;7.57;;;;;;;;;;10426135;28;20203;-72
2022/06/27 17:48:08;;;;;;;9.90;9.32;;;;;;;;;;10422097;28;20261;-70
2022/06/27 17:53:10;;;;;;;10.90;10.15;;;;;;;;;;10404753;28;20221;-74
2022/06/27 17:58:11;;;;;;;11.60;10.60;;;;;;;;;;10425655;28;20212;-72
2022/06/27 18:03:12;;;;;;;11.05;10.38;;;;;;;;;;10421040;28;20770;-72
2022/06/27 18:08:13;;;;;;;13.60;12.30;;;;;;;;;;10414900;28;20190;-71
2022/06/27 18:13:14;;;;;;;12.38;11.43;;;;;;;;;;10417951;28;20189;-70
2022/06/27 18:18:15;;;;;;;12.15;11.35;;;;;;;;;;10414281;28;20218;-72
2022/06/27 18:23:16;;;;;;;11.32;10.43;;;;;;;;;;10412028;28;20667;-70
2022/06/27 18:28:17;;;;;;;11.85;10.98;;;;;;;;;;10419126;28;20190;-69
2022/06/27 18:33:20;;;;;;;11.50;10.70;;;;;;;;;;10397016;28;20216;-71
2022/06/27 18:38:21;;;;;;;11.88;10.98;;;;;;;;;;10411800;28;20257;-70
2022/06/27 18:43:22;;;;;;;9.95;9.35;;;;;;;;;;10416432;28;20267;-72
2022/06/27 18:48:23;;;;;;;9.23;8.63;;;;;;;;;;10415652;28;20230;-71
2022/06/27 18:53:24;;;;;;;7.43;7.13;;;;;;;;;;10410201;28;20185;-72
2022/06/27 18:58:25;;;;;;;7.28;6.78;;;;;;;;;;10417977;28;20207;-76
2022/06/27 19:03:26;;;;;;;6.35;5.72;;;;;;;;;;10413260;28;20567;-72
2022/06/27 19:08:28;;;;;;;6.03;5.82;;;;;;;;;;10411440;28;20194;-70
2022/06/27 19:13:29;;;;;;;6.03;5.88;;;;;;;;;;10416425;28;20609;-70
2022/06/27 19:18:31;;;;;;;5.45;5.35;;;;;;;;;;10414278;28;20219;-72
2022/06/27 19:23:32;;;;;;;5.95;5.75;;;;;;;;;;10394009;28;20179;-71
2022/06/27 19:28:33;;;;;;;5.43;4.95;;;;;;;;;;10417815;28;20281;-71
2022/06/27 19:33:34;;;;;;;6.32;6.03;;;;;;;;;;10401851;28;20219;-73
2022/06/27 19:38:35;;;;;;;6.20;6.00;;;;;;;;;;10413205;28;20207;-72
2022/06/27 19:43:38;;;;;;;6.22;5.93;;;;;;;;;;10415725;28;20265;-70
2022/06/27 19:48:39;;;;;;;6.85;6.45;;;;;;;;;;10416659;28;20682;-72
2022/06/27 19:53:40;;;;;;;7.78;7.25;;;;;;;;;;10415336;28;20183;-75
2022/06/27 19:58:41;;;;;;;8.07;7.43;;;;;;;;;;10413662;28;20209;-72
2022/06/27 20:03:42;;;;;;;8.10;7.43;;;;;;;;;;10396265;28;20219;-71
2022/06/27 20:08:44;;;;;;;8.98;8.27;;;;;;;;;;10414961;28;20290;-72
2022/06/27 20:13:45;;;;;;;9.05;8.55;;;;;;;;;;10400001;28;20190;-73
2022/06/27 20:18:46;;;;;;;9.85;9.18;;;;;;;;;;10415991;28;20207;-72
2022/06/27 20:23:47;;;;;;;11.20;10.35;;;;;;;;;;10415770;28;20954;-72
2022/06/27 20:28:49;;;;;;;12.50;11.60;;;;;;;;;;10381284;28;20183;-73
2022/06/27 20:33:50;;;;;;;12.10;11.20;;;;;;;;;;10415051;28;20273;-72
2022/06/27 20:38:51;;;;;;;13.98;12.85;;;;;;;;;;10414301;28;20213;-71
2022/06/27 20:43:52;;;;;;;14.15;13.05;;;;;;;;;;10380592;28;20186;-72
2022/06/27 20:48:53;;;;;;;14.55;13.25;;;;;;;;;;10418312;28;20231;-72
2022/06/27 20:53:54;;;;;;;14.07;12.88;;;;;;;;;;10416593;28;20626;-72
2022/06/27 20:58:56;;;;;;;14.18;13.07;;;;;;;;;;10383455;28;20223;-71
2022/06/27 21:03:57;;;;;;;14.07;12.80;;;;;;;;;;10404021;28;20705;-72
2022/06/27 21:14:19;;;;;;;15.57;13.98;;;;;;;;;;10414766;28;20183;-72
2022/06/27 21:19:20;;;;;;;15.68;14.32;;;;;;;;;;10415299;28;20210;-72
2022/06/27 21:24:22;;;;;;;16.55;15.05;;;;;;;;;;10411118;28;20231;-72
2022/06/27 21:29:23;;;;;;;16.33;14.82;;;;;;;;;;10414339;28;20198;-72
2022/06/27 21:34:24;;;;;;;15.88;14.60;;;;;;;;;;10410830;28;20715;-73
2022/06/27 21:39:25;;;;;;;18.40;16.85;;;;;;;;;;10392902;28;20186;-72
2022/06/27 21:44:26;;;;;;;17.40;15.82;;;;;;;;;;10410794;28;20180;-72
2022/06/27 21:49:28;;;;;;;17.45;15.82;;;;;;;;;;10407597;28;20218;-72
2022/06/27 21:54:29;;;;;;;16.70;15.25;;;;;;;;;;10399770;28;20238;-72
2022/06/27 21:59:30;;;;;;;14.98;13.68;;;;;;;;;;10422726;28;20179;-72
2022/06/27 22:04:31;;;;;;;14.45;13.30;;;;;;;;;;10423479;28;20213;-72
2022/06/27 22:09:32;;;;;;;14.13;12.75;;;;;;;;;;10416954;28;20691;-72
2022/06/27 22:14:33;;;;;;;12.60;11.70;;;;;;;;;;10423588;28;20186;-73
2022/06/27 22:19:34;;;;;;;11.48;10.68;;;;;;;;;;10423815;28;20203;-72
2022/06/27 22:24:35;;;;;;;10.85;10.15;;;;;;;;;;10414971;28;20179;-72
2022/06/27 22:29:36;;;;;;;11.13;10.32;;;;;;;;;;10424426;28;20674;-72
2022/06/27 22:34:37;;;;;;;9.98;9.27;;;;;;;;;;10419993;28;20210;-72
2022/06/27 22:39:38;;;;;;;10.30;9.63;;;;;;;;;;10422100;28;20183;-72
2022/06/27 22:44:39;;;;;;;10.63;9.88;;;;;;;;;;10426147;28;20188;-71
2022/06/27 22:49:41;;;;;;;10.13;9.45;;;;;;;;;;10422351;28;20230;-73
2022/06/27 22:54:43;;;;;;;10.10;9.35;;;;;;;;;;10421979;28;20179;-72
2022/06/27 22:59:45;;;;;;;9.15;8.57;;;;;;;;;;10420818;28;20182;-72
2022/06/27 23:04:46;;;;;;;10.07;9.48;;;;;;;;;;10406114;28;20371;-72
2022/06/27 23:09:47;;;;;;;12.20;11.27;;;;;;;;;;10421124;28;20206;-73
2022/06/27 23:14:49;;;;;;;10.90;10.20;;;;;;;;;;10414196;28;20956;-72
2022/06/27 23:19:50;;;;;;;11.63;10.80;;;;;;;;;;10420095;28;20328;-71
2022/06/27 23:24:51;;;;;;;12.07;11.15;;;;;;;;;;10419139;28;20190;-72
2022/06/27 23:29:52;;;;;;;12.85;11.85;;;;;;;;;;10421075;28;20206;-71
2022/06/27 23:34:53;;;;;;;13.95;12.77;;;;;;;;;;10425714;28;20231;-72
2022/06/27 23:39:54;;;;;;;14.02;12.82;;;;;;;;;;10418323;28;20298;-72
2022/06/27 23:44:55;;;;;;;14.57;13.40;;;;;;;;;;10422365;28;20318;-72
2022/06/27 23:49:56;;;;;;;13.75;12.57;;;;;;;;;;10415739;28;20281;-72
2022/06/27 23:54:57;;;;;;;14.00;12.70;;;;;;;;;;10416718;28;21042;-71
2022/06/27 23:59:58;;;;;;;16.38;14.93;;;;;;;;;;10421065;28;20183;-70
